sensor_id;sensor_type;location;lat;lon;timestamp;pressure;altitude;pressure_sealevel;temperature;humidity
6196;BME280;3131;42.630;23.382;2022-09-09T00:01:58;94634.22;;;18.03;100.00
6196;BME280;3131;42.630;23.382;2022-09-09T00:04:29;94633.70;;;17.99;100.00
6196;BME280;3131;42.630;23.382;2022-09-09T00:07:04;94628.14;;;17.86;100.00
6196;BME280;3131;42.630;23.382;2022-09-09T00:09:40;94623.16;;;17.84;100.00
6196;BME280;3131;42.630;23.382;2022-09-09T00:12:15;94620.63;;;17.98;100.00
6196;BME280;3131;42.630;23.382;2022-09-09T00:17:35;94632.92;;;18.17;100.00
6196;BME280;3131;42.630;23.382;2022-09-09T00:20:11;94633.56;;;18.15;100.00
6196;BME280;3131;42.630;23.382;2022-09-09T00:22:43;94636.05;;;18.10;100.00
6196;BME280;3131;42.630;23.382;2022-09-09T00:25:15;94631.39;;;18.06;100.00
6196;BME280;3131;42.630;23.382;2022-09-09T00:27:47;94622.41;;;18.02;100.00
6196;BME280;3131;42.630;23.382;2022-09-09T00:30:19;94616.33;;;17.99;100.00
6196;BME280;3131;42.630;23.382;2022-09-09T00:32:53;94614.47;;;17.91;100.00
6196;BME280;3131;42.630;23.382;2022-09-09T00:35:25;94609.64;;;17.88;100.00
6196;BME280;3131;42.630;23.382;2022-09-09T00:37:57;94609.00;;;17.86;100.00
6196;BME280;3131;42.630;23.382;2022-09-09T00:40:30;94594.55;;;17.77;100.00
6196;BME280;3131;42.630;23.382;2022-09-09T00:43:10;94601.17;;;17.74;100.00
6196;BME280;3131;42.630;23.382;2022-09-09T00:45:54;94597.52;;;17.62;100.00
6196;BME280;3131;42.630;23.382;2022-09-09T00:48:26;94592.94;;;17.52;100.00
6196;BME280;3131;42.630;23.382;2022-09-09T00:50:57;94582.83;;;17.47;100.00
6196;BME280;3131;42.630;23.382;2022-09-09T00:53:35;94586.21;;;17.37;100.00
6196;BME280;3131;42.630;23.382;2022-09-09T00:58:53;94584.45;;;17.48;100.00
6196;BME280;3131;42.630;23.382;2022-09-09T01:01:24;94588.79;;;17.28;100.00
6196;BME280;3131;42.630;23.382;2022-09-09T01:03:55;94585.08;;;17.12;100.00
6196;BME280;3131;42.630;23.382;2022-09-09T01:06:29;94580.98;;;16.92;100.00
6196;BME280;3131;42.630;23.382;2022-09-09T01:09:15;94575.63;;;16.85;100.00
6196;BME280;3131;42.630;23.382;2022-09-09T01:11:55;94580.67;;;16.81;100.00
6196;BME280;3131;42.630;23.382;2022-09-09T01:14:32;94578.75;;;16.74;100.00
6196;BME280;3131;42.630;23.382;2022-09-09T01:17:04;94581.92;;;16.71;100.00
6196;BME280;3131;42.630;23.382;2022-09-09T01:19:39;94583.52;;;16.73;100.00
6196;BME280;3131;42.630;23.382;2022-09-09T01:22:11;94581.05;;;16.67;100.00
6196;BME280;3131;42.630;23.382;2022-09-09T01:24:44;94584.00;;;16.72;100.00
6196;BME280;3131;42.630;23.382;2022-09-09T01:27:14;94585.41;;;16.80;100.00
6196;BME280;3131;42.630;23.382;2022-09-09T01:29:45;94578.97;;;16.86;100.00
6196;BME280;3131;42.630;23.382;2022-09-09T01:32:39;94577.48;;;16.93;100.00
6196;BME280;3131;42.630;23.382;2022-09-09T01:35:11;94565.72;;;17.06;100.00
6196;BME280;3131;42.630;23.382;2022-09-09T01:37:41;94572.33;;;17.22;100.00
6196;BME280;3131;42.630;23.382;2022-09-09T01:40:11;94574.42;;;17.36;100.00
6196;BME280;3131;42.630;23.382;2022-09-09T01:42:40;94580.03;;;17.40;100.00
6196;BME280;3131;42.630;23.382;2022-09-09T01:45:11;94596.80;;;17.43;100.00
6196;BME280;3131;42.630;23.382;2022-09-09T01:47:40;94598.55;;;17.42;100.00
6196;BME280;3131;42.630;23.382;2022-09-09T01:50:11;94601.42;;;17.43;100.00
6196;BME280;3131;42.630;23.382;2022-09-09T01:52:41;94589.16;;;17.43;100.00
6196;BME280;3131;42.630;23.382;2022-09-09T01:55:12;94599.91;;;17.50;100.00
6196;BME280;3131;42.630;23.382;2022-09-09T01:57:45;94606.36;;;17.54;100.00
6196;BME280;3131;42.630;23.382;2022-09-09T02:00:15;94605.33;;;17.61;100.00
6196;BME280;3131;42.630;23.382;2022-09-09T02:02:50;94612.22;;;17.64;100.00
6196;BME280;3131;42.630;23.382;2022-09-09T02:05:23;94615.65;;;17.59;100.00
6196;BME280;3131;42.630;23.382;2022-09-09T02:07:55;94606.64;;;17.51;100.00
6196;BME280;3131;42.630;23.382;2022-09-09T02:10:28;94601.94;;;17.47;100.00
6196;BME280;3131;42.630;23.382;2022-09-09T02:13:00;94600.15;;;17.43;100.00
6196;BME280;3131;42.630;23.382;2022-09-09T02:15:32;94596.48;;;17.42;100.00
6196;BME280;3131;42.630;23.382;2022-09-09T02:18:04;94600.58;;;17.38;100.00
6196;BME280;3131;42.630;23.382;2022-09-09T02:20:37;94602.45;;;17.36;100.00
6196;BME280;3131;42.630;23.382;2022-09-09T02:23:08;94599.39;;;17.33;100.00
6196;BME280;3131;42.630;23.382;2022-09-09T02:25:38;94588.14;;;17.26;100.00
6196;BME280;3131;42.630;23.382;2022-09-09T02:28:10;94579.83;;;17.24;100.00
6196;BME280;3131;42.630;23.382;2022-09-09T02:30:42;94572.78;;;17.22;100.00
6196;BME280;3131;42.630;23.382;2022-09-09T02:33:15;94577.03;;;17.17;100.00
6196;BME280;3131;42.630;23.382;2022-09-09T02:35:46;94575.36;;;17.12;100.00
6196;BME280;3131;42.630;23.382;2022-09-09T02:38:16;94584.91;;;17.10;100.00
6196;BME280;3131;42.630;23.382;2022-09-09T02:40:45;94575.78;;;17.07;100.00
6196;BME280;3131;42.630;23.382;2022-09-09T02:43:16;94587.39;;;16.96;100.00
6196;BME280;3131;42.630;23.382;2022-09-09T02:45:49;94596.33;;;16.86;100.00
6196;BME280;3131;42.630;23.382;2022-09-09T02:48:21;94592.57;;;16.81;100.00
6196;BME280;3131;42.630;23.382;2022-09-09T02:50:54;94591.30;;;16.81;100.00
6196;BME280;3131;42.630;23.382;2022-09-09T02:53:27;94602.31;;;16.81;100.00
6196;BME280;3131;42.630;23.382;2022-09-09T02:55:58;94603.66;;;16.76;100.00
6196;BME280;3131;42.630;23.382;2022-09-09T02:58:29;94604.11;;;16.65;100.00
6196;BME280;3131;42.630;23.382;2022-09-09T03:00:58;94602.09;;;16.59;100.00
6196;BME280;3131;42.630;23.382;2022-09-09T03:03:28;94596.53;;;16.60;100.00
6196;BME280;3131;42.630;23.382;2022-09-09T03:05:58;94587.63;;;16.60;100.00
6196;BME280;3131;42.630;23.382;2022-09-09T03:08:27;94589.42;;;16.63;100.00
6196;BME280;3131;42.630;23.382;2022-09-09T03:10:57;94585.88;;;16.60;100.00
6196;BME280;3131;42.630;23.382;2022-09-09T03:13:29;94587.14;;;16.60;100.00
6196;BME280;3131;42.630;23.382;2022-09-09T03:15:58;94595.26;;;16.60;100.00
6196;BME280;3131;42.630;23.382;2022-09-09T03:18:27;94593.98;;;16.60;100.00
6196;BME280;3131;42.630;23.382;2022-09-09T03:20:57;94593.37;;;16.52;100.00
6196;BME280;3131;42.630;23.382;2022-09-09T03:23:27;94594.25;;;16.47;100.00
6196;BME280;3131;42.630;23.382;2022-09-09T03:25:57;94592.66;;;16.46;100.00
6196;BME280;3131;42.630;23.382;2022-09-09T03:28:26;94585.82;;;16.46;100.00
6196;BME280;3131;42.630;23.382;2022-09-09T03:31:00;94585.14;;;16.44;100.00
6196;BME280;3131;42.630;23.382;2022-09-09T03:33:29;94572.53;;;16.33;100.00
6196;BME280;3131;42.630;23.382;2022-09-09T03:35:59;94590.64;;;16.40;100.00
6196;BME280;3131;42.630;23.382;2022-09-09T03:38:28;94595.85;;;16.38;100.00
6196;BME280;3131;42.630;23.382;2022-09-09T03:40:57;94594.99;;;16.34;100.00
6196;BME280;3131;42.630;23.382;2022-09-09T03:43:28;94584.08;;;16.37;100.00
6196;BME280;3131;42.630;23.382;2022-09-09T03:45:57;94590.02;;;16.42;100.00
6196;BME280;3131;42.630;23.382;2022-09-09T03:48:27;94587.74;;;16.48;100.00
6196;BME280;3131;42.630;23.382;2022-09-09T03:50:56;94584.07;;;16.57;100.00
6196;BME280;3131;42.630;23.382;2022-09-09T03:53:28;94590.70;;;16.63;100.00
6196;BME280;3131;42.630;23.382;2022-09-09T03:55:58;94591.97;;;16.63;100.00
6196;BME280;3131;42.630;23.382;2022-09-09T03:58:28;94590.37;;;16.62;100.00
6196;BME280;3131;42.630;23.382;2022-09-09T04:00:59;94589.16;;;16.57;100.00
6196;BME280;3131;42.630;23.382;2022-09-09T04:03:29;94594.73;;;16.46;100.00
6196;BME280;3131;42.630;23.382;2022-09-09T04:06:00;94588.69;;;16.38;100.00
6196;BME280;3131;42.630;23.382;2022-09-09T04:08:31;94593.30;;;16.38;100.00
6196;BME280;3131;42.630;23.382;2022-09-09T04:11:00;94599.72;;;16.33;100.00
6196;BME280;3131;42.630;23.382;2022-09-09T04:13:32;94591.34;;;16.27;100.00
6196;BME280;3131;42.630;23.382;2022-09-09T04:16:02;94597.18;;;16.33;100.00
6196;BME280;3131;42.630;23.382;2022-09-09T04:18:32;94602.01;;;16.36;100.00
6196;BME280;3131;42.630;23.382;2022-09-09T04:21:02;94599.41;;;16.41;100.00
6196;BME280;3131;42.630;23.382;2022-09-09T04:23:33;94597.54;;;16.53;100.00
6196;BME280;3131;42.630;23.382;2022-09-09T04:26:04;94594.31;;;16.61;100.00
6196;BME280;3131;42.630;23.382;2022-09-09T04:28:35;94594.18;;;16.72;100.00
6196;BME280;3131;42.630;23.382;2022-09-09T04:31:07;94598.89;;;16.77;100.00
6196;BME280;3131;42.630;23.382;2022-09-09T04:33:37;94596.27;;;16.82;100.00
6196;BME280;3131;42.630;23.382;2022-09-09T04:36:07;94606.46;;;16.82;100.00
6196;BME280;3131;42.630;23.382;2022-09-09T04:38:36;94606.13;;;16.81;100.00
6196;BME280;3131;42.630;23.382;2022-09-09T04:41:06;94606.45;;;16.92;100.00
6196;BME280;3131;42.630;23.382;2022-09-09T04:43:37;94612.66;;;16.93;100.00
6196;BME280;3131;42.630;23.382;2022-09-09T04:46:07;94614.62;;;16.96;100.00
6196;BME280;3131;42.630;23.382;2022-09-09T04:48:36;94615.94;;;17.00;100.00
6196;BME280;3131;42.630;23.382;2022-09-09T04:51:08;94624.67;;;17.07;100.00
6196;BME280;3131;42.630;23.382;2022-09-09T04:53:37;94621.22;;;17.12;100.00
6196;BME280;3131;42.630;23.382;2022-09-09T04:56:09;94609.48;;;17.15;100.00
6196;BME280;3131;42.630;23.382;2022-09-09T04:58:39;94595.19;;;17.18;100.00
6196;BME280;3131;42.630;23.382;2022-09-09T05:01:12;94597.87;;;17.26;100.00
6196;BME280;3131;42.630;23.382;2022-09-09T05:03:41;94601.45;;;17.33;100.00
6196;BME280;3131;42.630;23.382;2022-09-09T05:06:14;94594.48;;;17.35;100.00
6196;BME280;3131;42.630;23.382;2022-09-09T05:08:44;94595.01;;;17.39;100.00
6196;BME280;3131;42.630;23.382;2022-09-09T05:11:19;94586.45;;;17.44;100.00
6196;BME280;3131;42.630;23.382;2022-09-09T05:13:49;94584.62;;;17.50;100.00
6196;BME280;3131;42.630;23.382;2022-09-09T05:16:19;94583.61;;;17.71;100.00
6196;BME280;3131;42.630;23.382;2022-09-09T05:18:50;94589.29;;;17.78;100.00
6196;BME280;3131;42.630;23.382;2022-09-09T05:21:21;94591.23;;;17.80;100.00
6196;BME280;3131;42.630;23.382;2022-09-09T05:23:51;94594.81;;;17.88;100.00
6196;BME280;3131;42.630;23.382;2022-09-09T05:26:22;94596.91;;;18.02;100.00
6196;BME280;3131;42.630;23.382;2022-09-09T05:31:38;94583.18;;;18.35;100.00
6196;BME280;3131;42.630;23.382;2022-09-09T05:34:08;94584.55;;;18.43;100.00
6196;BME280;3131;42.630;23.382;2022-09-09T05:36:38;94582.55;;;18.54;100.00
6196;BME280;3131;42.630;23.382;2022-09-09T05:39:07;94590.61;;;18.64;100.00
6196;BME280;3131;42.630;23.382;2022-09-09T05:41:36;94595.84;;;18.76;100.00
6196;BME280;3131;42.630;23.382;2022-09-09T05:44:06;94590.63;;;19.04;100.00
6196;BME280;3131;42.630;23.382;2022-09-09T05:46:35;94587.88;;;19.27;100.00
6196;BME280;3131;42.630;23.382;2022-09-09T05:49:05;94592.75;;;19.38;100.00
6196;BME280;3131;42.630;23.382;2022-09-09T05:51:34;94602.41;;;19.57;100.00
6196;BME280;3131;42.630;23.382;2022-09-09T05:54:04;94613.08;;;19.74;100.00
6196;BME280;3131;42.630;23.382;2022-09-09T05:56:33;94620.68;;;19.92;100.00
6196;BME280;3131;42.630;23.382;2022-09-09T05:59:02;94613.84;;;20.05;100.00
6196;BME280;3131;42.630;23.382;2022-09-09T06:01:34;94606.34;;;20.20;100.00
6196;BME280;3131;42.630;23.382;2022-09-09T06:04:04;94613.57;;;20.32;100.00
6196;BME280;3131;42.630;23.382;2022-09-09T06:06:34;94619.83;;;20.42;100.00
6196;BME280;3131;42.630;23.382;2022-09-09T06:11:48;94635.13;;;20.84;100.00
6196;BME280;3131;42.630;23.382;2022-09-09T06:14:18;94637.84;;;20.83;100.00
6196;BME280;3131;42.630;23.382;2022-09-09T06:16:47;94642.97;;;20.95;100.00
6196;BME280;3131;42.630;23.382;2022-09-09T06:19:16;94643.77;;;20.96;100.00
6196;BME280;3131;42.630;23.382;2022-09-09T06:21:46;94643.15;;;21.06;100.00
6196;BME280;3131;42.630;23.382;2022-09-09T06:24:16;94638.80;;;21.15;100.00
6196;BME280;3131;42.630;23.382;2022-09-09T06:26:47;94641.20;;;21.20;100.00
6196;BME280;3131;42.630;23.382;2022-09-09T06:29:16;94638.95;;;21.21;100.00
6196;BME280;3131;42.630;23.382;2022-09-09T06:31:45;94649.71;;;21.41;100.00
6196;BME280;3131;42.630;23.382;2022-09-09T06:34:15;94644.08;;;21.54;100.00
6196;BME280;3131;42.630;23.382;2022-09-09T06:36:44;94639.24;;;21.63;100.00
6196;BME280;3131;42.630;23.382;2022-09-09T06:39:13;94642.70;;;21.78;100.00
6196;BME280;3131;42.630;23.382;2022-09-09T06:41:43;94646.38;;;21.84;100.00
6196;BME280;3131;42.630;23.382;2022-09-09T06:44:12;94633.59;;;21.76;100.00
6196;BME280;3131;42.630;23.382;2022-09-09T06:46:43;94631.77;;;21.85;100.00
6196;BME280;3131;42.630;23.382;2022-09-09T06:49:13;94637.98;;;21.94;100.00
6196;BME280;3131;42.630;23.382;2022-09-09T06:51:43;94633.75;;;22.10;100.00
6196;BME280;3131;42.630;23.382;2022-09-09T06:54:12;94633.40;;;22.25;100.00
6196;BME280;3131;42.630;23.382;2022-09-09T06:56:42;94644.10;;;22.33;100.00
6196;BME280;3131;42.630;23.382;2022-09-09T06:59:13;94644.03;;;22.45;100.00
6196;BME280;3131;42.630;23.382;2022-09-09T07:01:43;94645.63;;;22.50;100.00
6196;BME280;3131;42.630;23.382;2022-09-09T07:04:12;94654.32;;;22.72;100.00
6196;BME280;3131;42.630;23.382;2022-09-09T07:06:42;94636.58;;;22.81;100.00
6196;BME280;3131;42.630;23.382;2022-09-09T07:09:13;94650.14;;;22.98;100.00
6196;BME280;3131;42.630;23.382;2022-09-09T07:11:44;94653.65;;;23.01;100.00
6196;BME280;3131;42.630;23.382;2022-09-09T07:14:14;94657.45;;;23.09;100.00
6196;BME280;3131;42.630;23.382;2022-09-09T07:16:45;94658.86;;;23.31;100.00
6196;BME280;3131;42.630;23.382;2022-09-09T07:19:15;94652.42;;;23.31;100.00
6196;BME280;3131;42.630;23.382;2022-09-09T07:21:44;94652.11;;;23.49;100.00
6196;BME280;3131;42.630;23.382;2022-09-09T07:24:14;94644.83;;;23.52;100.00
6196;BME280;3131;42.630;23.382;2022-09-09T07:26:43;94648.41;;;23.66;100.00
6196;BME280;3131;42.630;23.382;2022-09-09T07:29:13;94647.98;;;23.77;100.00
6196;BME280;3131;42.630;23.382;2022-09-09T07:31:43;94646.83;;;23.80;100.00
6196;BME280;3131;42.630;23.382;2022-09-09T07:34:12;94642.93;;;24.09;100.00
6196;BME280;3131;42.630;23.382;2022-09-09T07:36:42;94641.27;;;24.38;97.27
6196;BME280;3131;42.630;23.382;2022-09-09T07:41:51;94635.64;;;24.75;93.27
6196;BME280;3131;42.630;23.382;2022-09-09T07:44:23;94635.70;;;24.82;92.25
6196;BME280;3131;42.630;23.382;2022-09-09T07:46:54;94635.51;;;24.72;93.23
6196;BME280;3131;42.630;23.382;2022-09-09T07:49:23;94649.87;;;24.92;90.73
6196;BME280;3131;42.630;23.382;2022-09-09T07:51:52;94652.77;;;25.15;88.14
6196;BME280;3131;42.630;23.382;2022-09-09T07:54:22;94654.73;;;25.52;84.59
6196;BME280;3131;42.630;23.382;2022-09-09T07:56:51;94656.15;;;25.82;82.29
6196;BME280;3131;42.630;23.382;2022-09-09T07:59:21;94658.61;;;26.04;81.72
6196;BME280;3131;42.630;23.382;2022-09-09T08:01:53;94653.44;;;26.21;78.99
6196;BME280;3131;42.630;23.382;2022-09-09T08:04:23;94646.62;;;26.55;77.41
6196;BME280;3131;42.630;23.382;2022-09-09T08:06:54;94647.17;;;27.07;70.01
6196;BME280;3131;42.630;23.382;2022-09-09T08:09:24;94647.59;;;27.51;67.43
6196;BME280;3131;42.630;23.382;2022-09-09T08:11:54;94651.34;;;27.68;65.16
6196;BME280;3131;42.630;23.382;2022-09-09T08:14:24;94651.47;;;28.36;60.23
6196;BME280;3131;42.630;23.382;2022-09-09T08:16:53;94651.11;;;28.48;58.96
6196;BME280;3131;42.630;23.382;2022-09-09T08:19:23;94653.84;;;28.44;58.78
6196;BME280;3131;42.630;23.382;2022-09-09T08:21:52;94651.84;;;28.46;59.41
6196;BME280;3131;42.630;23.382;2022-09-09T08:24:21;94652.77;;;28.13;58.21
6196;BME280;3131;42.630;23.382;2022-09-09T08:26:50;94646.80;;;28.51;57.84
6196;BME280;3131;42.630;23.382;2022-09-09T08:29:21;94648.85;;;28.81;55.91
6196;BME280;3131;42.630;23.382;2022-09-09T08:31:52;94645.30;;;29.07;55.07
6196;BME280;3131;42.630;23.382;2022-09-09T08:34:22;94650.91;;;29.97;51.60
6196;BME280;3131;42.630;23.382;2022-09-09T08:36:54;94646.55;;;29.73;52.44
6196;BME280;3131;42.630;23.382;2022-09-09T08:39:23;94642.96;;;29.24;53.00
6196;BME280;3131;42.630;23.382;2022-09-09T08:42:17;94643.77;;;29.33;54.19
6196;BME280;3131;42.630;23.382;2022-09-09T08:44:57;94641.86;;;29.63;51.05
6196;BME280;3131;42.630;23.382;2022-09-09T08:47:31;94651.84;;;29.84;50.81
6196;BME280;3131;42.630;23.382;2022-09-09T08:50:08;94651.84;;;29.84;50.81
6196;BME280;3131;42.630;23.382;2022-09-09T08:52:44;94643.89;;;29.20;50.97
6196;BME280;3131;42.630;23.382;2022-09-09T08:58:05;94640.11;;;29.32;50.09
6196;BME280;3131;42.630;23.382;2022-09-09T09:00:37;94636.55;;;29.01;50.92
6196;BME280;3131;42.630;23.382;2022-09-09T09:03:12;94634.09;;;29.22;51.42
6196;BME280;3131;42.630;23.382;2022-09-09T09:05:44;94637.38;;;29.79;50.50
6196;BME280;3131;42.630;23.382;2022-09-09T09:08:17;94638.28;;;30.49;46.88
6196;BME280;3131;42.630;23.382;2022-09-09T09:10:50;94632.38;;;30.42;46.98
6196;BME280;3131;42.630;23.382;2022-09-09T09:13:22;94632.38;;;30.42;46.98
6196;BME280;3131;42.630;23.382;2022-09-09T09:15:54;94638.45;;;30.66;46.31
6196;BME280;3131;42.630;23.382;2022-09-09T09:18:24;94627.73;;;30.84;46.56
6196;BME280;3131;42.630;23.382;2022-09-09T09:20:58;94642.39;;;30.87;46.81
6196;BME280;3131;42.630;23.382;2022-09-09T09:23:31;94635.81;;;31.06;45.46
6196;BME280;3131;42.630;23.382;2022-09-09T09:28:47;94629.15;;;31.21;47.18
6196;BME280;3131;42.630;23.382;2022-09-09T09:31:19;94622.45;;;31.02;46.52
6196;BME280;3131;42.630;23.382;2022-09-09T09:33:50;94628.98;;;30.63;47.52
6196;BME280;3131;42.630;23.382;2022-09-09T09:36:21;94635.13;;;31.10;46.28
6196;BME280;3131;42.630;23.382;2022-09-09T09:38:56;94641.67;;;30.89;46.42
6196;BME280;3131;42.630;23.382;2022-09-09T09:41:31;94637.05;;;30.82;45.95
6196;BME280;3131;42.630;23.382;2022-09-09T09:44:02;94629.98;;;31.13;47.67
6196;BME280;3131;42.630;23.382;2022-09-09T09:46:32;94636.12;;;30.76;46.50
6196;BME280;3131;42.630;23.382;2022-09-09T09:49:03;94624.50;;;31.12;46.02
6196;BME280;3131;42.630;23.382;2022-09-09T09:51:33;94626.16;;;32.12;43.99
6196;BME280;3131;42.630;23.382;2022-09-09T09:54:16;94619.77;;;33.42;40.94
6196;BME280;3131;42.630;23.382;2022-09-09T09:56:46;94609.46;;;34.86;37.87
6196;BME280;3131;42.630;23.382;2022-09-09T09:59:32;94613.08;;;35.50;36.94
6196;BME280;3131;42.630;23.382;2022-09-09T10:01:54;94614.29;;;34.21;37.31
6196;BME280;3131;42.630;23.382;2022-09-09T10:04:23;94608.86;;;33.64;39.23
6196;BME280;3131;42.630;23.382;2022-09-09T10:06:53;94605.06;;;33.72;38.93
6196;BME280;3131;42.630;23.382;2022-09-09T10:09:24;94605.52;;;34.57;36.96
6196;BME280;3131;42.630;23.382;2022-09-09T10:11:59;94611.80;;;34.56;36.85
6196;BME280;3131;42.630;23.382;2022-09-09T10:14:32;94613.55;;;33.82;38.19
6196;BME280;3131;42.630;23.382;2022-09-09T10:17:10;94611.66;;;32.90;39.48
6196;BME280;3131;42.630;23.382;2022-09-09T10:19:42;94612.34;;;32.00;41.02
6196;BME280;3131;42.630;23.382;2022-09-09T10:22:27;94610.36;;;31.55;43.29
6196;BME280;3131;42.630;23.382;2022-09-09T10:25:30;94613.54;;;31.01;44.05
6196;BME280;3131;42.630;23.382;2022-09-09T10:28:32;94618.03;;;30.21;46.94
6196;BME280;3131;42.630;23.382;2022-09-09T10:31:08;94615.73;;;29.76;49.05
6196;BME280;3131;42.630;23.382;2022-09-09T10:33:42;94616.88;;;29.46;50.40
6196;BME280;3131;42.630;23.382;2022-09-09T10:36:13;94616.88;;;29.46;50.40
6196;BME280;3131;42.630;23.382;2022-09-09T10:38:47;94616.09;;;29.46;50.99
6196;BME280;3131;42.630;23.382;2022-09-09T10:41:31;94615.55;;;29.19;52.66
6196;BME280;3131;42.630;23.382;2022-09-09T10:47:32;94608.59;;;28.56;55.53
6196;BME280;3131;42.630;23.382;2022-09-09T10:50:12;94614.09;;;28.28;57.59
6196;BME280;3131;42.630;23.382;2022-09-09T10:52:45;94617.44;;;27.90;59.63
6196;BME280;3131;42.630;23.382;2022-09-09T10:58:05;94613.03;;;27.48;67.07
6196;BME280;3131;42.630;23.382;2022-09-09T11:00:40;94610.73;;;27.49;66.91
6196;BME280;3131;42.630;23.382;2022-09-09T11:06:00;94606.47;;;27.39;68.56
6196;BME280;3131;42.630;23.382;2022-09-09T11:08:32;94608.86;;;27.34;67.23
6196;BME280;3131;42.630;23.382;2022-09-09T11:13:53;94614.15;;;27.29;69.07
6196;BME280;3131;42.630;23.382;2022-09-09T11:16:27;94618.63;;;27.38;68.44
6196;BME280;3131;42.630;23.382;2022-09-09T11:21:42;94614.98;;;27.59;66.24
6196;BME280;3131;42.630;23.382;2022-09-09T11:24:13;94611.19;;;27.68;65.70
6196;BME280;3131;42.630;23.382;2022-09-09T11:29:43;94586.66;;;28.07;67.61
6196;BME280;3131;42.630;23.382;2022-09-09T11:35:35;94585.52;;;28.73;61.91
6196;BME280;3131;42.630;23.382;2022-09-09T11:38:23;94589.78;;;28.76;60.82
6196;BME280;3131;42.630;23.382;2022-09-09T11:40:57;94583.76;;;28.66;59.43
6196;BME280;3131;42.630;23.382;2022-09-09T11:43:31;94577.13;;;28.61;59.05
6196;BME280;3131;42.630;23.382;2022-09-09T11:46:02;94575.47;;;28.67;59.34
6196;BME280;3131;42.630;23.382;2022-09-09T11:48:34;94573.94;;;28.59;60.33
6196;BME280;3131;42.630;23.382;2022-09-09T11:51:07;94567.17;;;28.42;61.62
6196;BME280;3131;42.630;23.382;2022-09-09T11:53:47;94559.48;;;28.45;61.48
6196;BME280;3131;42.630;23.382;2022-09-09T11:59:21;94525.19;;;28.93;62.47
6196;BME280;3131;42.630;23.382;2022-09-09T12:01:54;94523.14;;;29.20;62.49
6196;BME280;3131;42.630;23.382;2022-09-09T12:04:36;94527.20;;;29.25;61.05
6196;BME280;3131;42.630;23.382;2022-09-09T12:10:17;94534.34;;;29.57;57.99
6196;BME280;3131;42.630;23.382;2022-09-09T12:12:37;94546.22;;;29.63;57.56
6196;BME280;3131;42.630;23.382;2022-09-09T12:15:27;94536.19;;;30.05;56.74
6196;BME280;3131;42.630;23.382;2022-09-09T12:17:58;94540.24;;;30.20;56.77
6196;BME280;3131;42.630;23.382;2022-09-09T12:20:33;94525.00;;;30.05;56.60
6196;BME280;3131;42.630;23.382;2022-09-09T12:23:27;94525.00;;;30.05;56.60
6196;BME280;3131;42.630;23.382;2022-09-09T12:26:23;94529.39;;;30.14;56.06
6196;BME280;3131;42.630;23.382;2022-09-09T12:28:58;94522.46;;;30.38;52.56
6196;BME280;3131;42.630;23.382;2022-09-09T12:31:30;94524.03;;;30.60;50.85
6196;BME280;3131;42.630;23.382;2022-09-09T12:34:10;94513.22;;;30.42;52.12
6196;BME280;3131;42.630;23.382;2022-09-09T12:36:41;94515.61;;;30.55;51.10
6196;BME280;3131;42.630;23.382;2022-09-09T12:39:18;94503.00;;;30.73;50.71
6196;BME280;3131;42.630;23.382;2022-09-09T12:41:54;94510.91;;;30.66;51.23
6196;BME280;3131;42.630;23.382;2022-09-09T12:44:25;94499.61;;;30.72;51.48
6196;BME280;3131;42.630;23.382;2022-09-09T12:46:59;94493.75;;;30.44;51.92
6196;BME280;3131;42.630;23.382;2022-09-09T12:49:31;94496.34;;;30.44;52.30
6196;BME280;3131;42.630;23.382;2022-09-09T12:52:04;94500.72;;;30.20;53.70
6196;BME280;3131;42.630;23.382;2022-09-09T12:54:36;94500.78;;;30.14;54.92
6196;BME280;3131;42.630;23.382;2022-09-09T12:57:09;94499.08;;;30.28;56.25
6196;BME280;3131;42.630;23.382;2022-09-09T12:59:41;94499.46;;;30.76;53.36
6196;BME280;3131;42.630;23.382;2022-09-09T13:02:18;94494.91;;;30.93;51.62
6196;BME280;3131;42.630;23.382;2022-09-09T13:04:48;94489.48;;;31.20;51.88
6196;BME280;3131;42.630;23.382;2022-09-09T13:07:18;94488.20;;;32.13;48.92
6196;BME280;3131;42.630;23.382;2022-09-09T13:09:49;94482.00;;;32.17;46.94
6196;BME280;3131;42.630;23.382;2022-09-09T13:12:20;94482.59;;;32.86;46.17
6196;BME280;3131;42.630;23.382;2022-09-09T13:14:51;94469.22;;;33.41;43.34
6196;BME280;3131;42.630;23.382;2022-09-09T13:17:24;94474.72;;;32.83;43.99
6196;BME280;3131;42.630;23.382;2022-09-09T13:19:55;94475.67;;;32.44;45.78
6196;BME280;3131;42.630;23.382;2022-09-09T13:22:30;94470.80;;;32.67;45.17
6196;BME280;3131;42.630;23.382;2022-09-09T13:25:03;94471.38;;;33.46;43.82
6196;BME280;3131;42.630;23.382;2022-09-09T13:27:35;94474.27;;;33.47;43.74
6196;BME280;3131;42.630;23.382;2022-09-09T13:30:22;94468.20;;;33.22;42.82
6196;BME280;3131;42.630;23.382;2022-09-09T13:33:02;94458.13;;;33.50;45.79
6196;BME280;3131;42.630;23.382;2022-09-09T13:35:32;94457.80;;;33.47;45.80
6196;BME280;3131;42.630;23.382;2022-09-09T13:38:08;94460.65;;;33.92;42.40
6196;BME280;3131;42.630;23.382;2022-09-09T13:40:38;94453.84;;;34.18;42.58
6196;BME280;3131;42.630;23.382;2022-09-09T13:43:14;94447.86;;;34.20;42.92
6196;BME280;3131;42.630;23.382;2022-09-09T13:45:52;94456.86;;;32.58;44.56
6196;BME280;3131;42.630;23.382;2022-09-09T13:48:22;94452.98;;;31.84;46.67
6196;BME280;3131;42.630;23.382;2022-09-09T13:51:00;94452.73;;;31.05;50.32
6196;BME280;3131;42.630;23.382;2022-09-09T13:53:29;94437.20;;;30.75;51.24
6196;BME280;3131;42.630;23.382;2022-09-09T13:55:59;94433.45;;;30.47;53.46
6196;BME280;3131;42.630;23.382;2022-09-09T13:58:29;94430.47;;;30.29;55.16
6196;BME280;3131;42.630;23.382;2022-09-09T14:00:58;94432.56;;;31.01;53.15
6196;BME280;3131;42.630;23.382;2022-09-09T14:03:27;94428.91;;;31.37;52.19
6196;BME280;3131;42.630;23.382;2022-09-09T14:05:56;94432.52;;;31.36;53.34
6196;BME280;3131;42.630;23.382;2022-09-09T14:08:27;94436.37;;;31.33;51.94
6196;BME280;3131;42.630;23.382;2022-09-09T14:10:58;94425.78;;;31.52;51.63
6196;BME280;3131;42.630;23.382;2022-09-09T14:13:27;94429.23;;;31.40;50.44
6196;BME280;3131;42.630;23.382;2022-09-09T14:15:57;94435.30;;;32.01;48.89
6196;BME280;3131;42.630;23.382;2022-09-09T14:18:26;94436.36;;;33.03;46.39